Time;durP1;ratioP1;P1;durP2;ratioP2;P2;SDS_P1;SDS_P2;PMS_P1;PMS_P2;Temp;Humidity;BMP_temperature;BMP_pressure;BME280_temperature;BME280_humidity;BME280_pressure;Samples;Min_cycle;Max_cycle;Signal;HPM_P1;HPM_P2
2021/05/23 00:00:19;;;;;;;4.28;1.50;;;;;;;11.44;69.61;100851.09;4954916;29;20081;-70
2021/05/23 00:02:46;;;;;;;6.95;1.75;;;;;;;11.60;70.06;100852.28;4936598;29;20044;-67
2021/05/23 00:05:18;;;;;;;3.97;1.33;;;;;;;12.14;68.83;100847.19;4936816;29;20054;-66
2021/05/23 00:07:54;;;;;;;4.47;1.45;;;;;;;11.93;67.94;100853.59;4937646;29;20058;-67
2021/05/23 00:10:24;;;;;;;6.05;1.38;;;;;;;12.11;68.37;100845.06;4937692;29;20058;-67
2021/05/23 00:12:56;;;;;;;5.05;1.55;;;;;;;11.80;68.17;100852.56;4937668;29;20059;-67
2021/05/23 00:15:32;;;;;;;3.25;1.15;;;;;;;11.91;68.00;100856.69;4921343;29;20054;-68
2021/05/23 00:17:59;;;;;;;9.73;1.67;;;;;;;11.77;68.86;100855.97;4954994;28;20048;-67
2021/05/23 00:20:27;;;;;;;8.35;1.50;;;;;;;11.71;68.43;100867.47;4954534;29;20051;-66
2021/05/23 00:22:55;;;;;;;4.50;1.23;;;;;;;11.50;69.49;100863.59;4936986;29;20066;-66
2021/05/23 00:25:23;;;;;;;5.18;1.45;;;;;;;11.43;69.71;100866.81;4954276;29;20066;-67
2021/05/23 00:27:51;;;;;;;5.57;1.80;;;;;;;11.49;69.54;100870.25;4954610;29;20051;-68
2021/05/23 00:30:20;;;;;;;5.43;1.70;;;;;;;11.66;69.62;100865.69;4954234;29;20144;-67
2021/05/23 00:32:50;;;;;;;3.30;1.25;;;;;;;11.67;69.76;100867.28;4953663;29;20051;-67
2021/05/23 00:35:18;;;;;;;6.30;1.38;;;;;;;11.31;69.64;100863.81;4954216;28;20057;-66
2021/05/23 00:37:46;;;;;;;4.10;1.60;;;;;;;11.51;70.15;100870.72;4936337;29;20074;-67
2021/05/23 00:40:14;;;;;;;4.47;1.60;;;;;;;11.47;69.50;100869.75;4954404;29;20054;-68
2021/05/23 00:42:41;;;;;;;7.95;1.38;;;;;;;11.37;69.75;100876.31;4954204;29;20406;-69
2021/05/23 00:45:13;;;;;;;3.50;1.20;;;;;;;11.55;70.41;100874.50;4954271;29;20058;-67
2021/05/23 00:52:18;;;;;;;3.22;1.20;;;;;;;11.26;70.78;100877.72;4954060;29;20047;-68
2021/05/23 00:54:46;;;;;;;4.00;1.30;;;;;;;11.19;72.03;100874.59;4954473;29;20513;-68
2021/05/23 00:57:14;;;;;;;4.10;1.20;;;;;;;11.18;70.84;100879.28;4937130;29;20039;-67
2021/05/23 00:59:42;;;;;;;4.07;1.33;;;;;;;11.10;71.52;100871.78;4937235;29;20514;-66
2021/05/23 01:02:12;;;;;;;6.78;1.67;;;;;;;11.20;70.60;100862.44;4953862;29;20047;-66
2021/05/23 01:04:40;;;;;;;4.05;1.13;;;;;;;11.45;69.87;100870.06;4953987;29;20047;-67
2021/05/23 01:07:08;;;;;;;7.75;1.60;;;;;;;11.31;70.08;100874.84;4953898;29;20180;-67
2021/05/23 01:09:35;;;;;;;5.10;1.27;;;;;;;11.36;70.11;100877.47;4935772;29;20066;-67
2021/05/23 01:12:24;;;;;;;4.22;1.40;;;;;;;11.27;70.27;100880.16;4954053;29;20043;-68
2021/05/23 01:14:57;;;;;;;5.30;1.30;;;;;;;11.18;70.34;100872.94;4934446;29;20055;-69
2021/05/23 01:17:35;;;;;;;8.15;1.52;;;;;;;11.03;70.77;100874.16;4959817;29;20059;-68
2021/05/23 01:20:08;;;;;;;4.55;1.38;;;;;;;11.45;69.84;100872.00;4928081;29;20093;-67
2021/05/23 01:22:41;;;;;;;5.13;1.42;;;;;;;11.34;69.96;100865.94;4942162;29;20051;-67
2021/05/23 01:25:13;;;;;;;6.75;1.40;;;;;;;11.33;70.01;100869.84;4942432;29;20078;-67
2021/05/23 01:27:45;;;;;;;6.88;1.33;;;;;;;11.51;69.82;100866.03;4960016;28;20058;-68
2021/05/23 01:30:18;;;;;;;7.72;1.55;;;;;;;11.37;69.69;100873.56;4960259;28;20062;-67
2021/05/23 01:32:47;;;;;;;5.40;1.50;;;;;;;11.73;68.38;100876.25;4959834;28;20043;-68
2021/05/23 01:35:23;;;;;;;6.03;1.55;;;;;;;11.45;68.94;100877.53;4943017;29;20124;-66
2021/05/23 01:37:59;;;;;;;6.28;1.23;;;;;;;11.32;69.43;100880.03;4959468;29;20063;-67
2021/05/23 01:40:32;;;;;;;5.38;1.90;;;;;;;11.28;70.20;100879.03;4943948;29;20047;-67
2021/05/23 01:43:00;;;;;;;3.97;1.20;;;;;;;11.33;69.98;100878.91;4943004;29;20059;-67
2021/05/23 01:45:30;;;;;;;8.05;1.42;;;;;;;11.23;69.58;100883.84;4942392;29;20058;-65
2021/05/23 01:47:59;;;;;;;5.13;1.38;;;;;;;11.32;69.52;100879.22;4960021;28;20047;-67
2021/05/23 01:50:27;;;;;;;6.63;1.27;;;;;;;11.15;69.31;100885.44;4942087;29;20050;-67
2021/05/23 01:53:01;;;;;;;5.43;1.33;;;;;;;11.23;69.87;100878.34;4942803;28;20043;-68
2021/05/23 01:55:29;;;;;;;8.82;1.20;;;;;;;11.51;69.08;100881.75;4959237;29;20062;-68
2021/05/23 01:57:57;;;;;;;3.63;1.00;;;;;;;11.48;69.09;100877.72;4927042;29;20043;-66
2021/05/23 02:00:38;;;;;;;7.97;1.30;;;;;;;11.56;68.41;100882.44;4959585;29;20055;-67
2021/05/23 02:03:08;;;;;;;5.75;1.40;;;;;;;11.29;69.63;100886.19;4959785;28;20058;-67
2021/05/23 02:05:45;;;;;;;8.40;1.90;;;;;;;11.43;69.17;100891.63;4958920;29;20058;-66
2021/05/23 02:08:15;;;;;;;6.63;1.30;;;;;;;11.50;69.41;100896.69;4960046;29;20055;-67
2021/05/23 02:10:43;;;;;;;6.70;1.48;;;;;;;11.62;69.18;100883.13;4959823;29;20059;-66
2021/05/23 02:13:11;;;;;;;4.72;1.10;;;;;;;12.01;68.87;100888.72;4959138;28;20406;-68
2021/05/23 02:15:39;;;;;;;4.47;1.13;;;;;;;11.97;69.65;100894.06;4942721;29;20062;-68
2021/05/23 02:18:07;;;;;;;3.42;0.90;;;;;;;11.89;68.87;100889.31;4941920;29;20062;-68
2021/05/23 02:20:35;;;;;;;4.53;1.20;;;;;;;11.84;67.88;100891.38;4942856;29;20406;-68
2021/05/23 02:23:13;;;;;;;5.18;1.15;;;;;;;11.73;70.25;100890.06;4959774;29;20057;-67
2021/05/23 02:25:40;;;;;;;4.63;1.20;;;;;;;11.95;68.67;100895.50;4957981;28;20062;-67
2021/05/23 02:28:09;;;;;;;7.28;1.25;;;;;;;11.75;69.98;100891.34;4956707;29;20246;-67
2021/05/23 02:30:40;;;;;;;4.78;1.10;;;;;;;11.74;69.06;100898.00;4923196;29;20067;-68
2021/05/23 02:33:09;;;;;;;4.43;0.90;;;;;;;11.81;68.74;100897.56;4956769;28;20054;-69
2021/05/23 02:35:39;;;;;;;5.45;1.10;;;;;;;11.97;69.77;100904.28;4956235;29;20063;-66
2021/05/23 02:38:08;;;;;;;3.53;0.87;;;;;;;11.85;68.48;100907.66;4956695;29;20054;-70
2021/05/23 02:40:36;;;;;;;2.83;0.95;;;;;;;12.15;68.69;100908.75;4956604;29;20054;-68
2021/05/23 02:43:06;;;;;;;3.40;1.00;;;;;;;11.93;69.06;100909.63;4939826;29;20047;-68
2021/05/23 02:45:37;;;;;;;4.53;1.25;;;;;;;11.68;69.15;100906.75;4938895;29;20062;-68
2021/05/23 02:48:06;;;;;;;6.55;1.40;;;;;;;11.50;69.96;100908.56;4956203;29;20063;-66
2021/05/23 02:50:36;;;;;;;5.82;1.35;;;;;;;11.73;70.81;100907.44;4955672;29;20059;-66
2021/05/23 02:53:08;;;;;;;7.80;1.13;;;;;;;11.54;69.82;100917.81;4939245;29;20459;-66
2021/05/23 02:55:36;;;;;;;3.50;1.05;;;;;;;11.50;71.28;100921.53;4923125;29;20043;-66
2021/05/23 02:58:06;;;;;;;6.05;1.20;;;;;;;11.71;70.11;100917.13;4923492;29;20063;-67
2021/05/23 03:00:34;;;;;;;3.28;1.35;;;;;;;11.47;70.08;100914.72;4956282;29;20044;-69
2021/05/23 03:03:02;;;;;;;4.35;1.10;;;;;;;11.70;69.92;100919.06;4939462;29;20047;-66
2021/05/23 03:05:30;;;;;;;4.40;1.17;;;;;;;11.65;69.26;100921.97;4955976;29;20051;-67
2021/05/23 03:07:58;;;;;;;7.78;1.30;;;;;;;11.74;69.81;100930.31;4955312;29;20051;-67
2021/05/23 03:10:31;;;;;;;2.38;0.90;;;;;;;11.68;70.34;100924.09;4956081;29;20062;-68
2021/05/23 03:13:05;;;;;;;4.25;1.00;;;;;;;11.52;69.91;100925.59;4938213;29;20507;-66
2021/05/23 03:15:32;;;;;;;5.72;1.25;;;;;;;11.38;70.37;100933.13;4922958;29;20058;-68
2021/05/23 03:18:02;;;;;;;3.50;1.10;;;;;;;11.31;71.27;100924.47;4938708;29;20047;-67
2021/05/23 03:20:31;;;;;;;4.65;1.10;;;;;;;11.09;72.00;100932.72;4956143;29;20468;-68
2021/05/23 03:22:59;;;;;;;3.63;1.10;;;;;;;11.22;72.14;100927.19;4955813;29;20063;-68
2021/05/23 03:25:28;;;;;;;4.57;1.25;;;;;;;11.40;71.09;100921.78;4954623;29;20062;-67
2021/05/23 03:27:57;;;;;;;5.18;1.10;;;;;;;11.23;71.66;100925.22;4955023;29;20062;-69
2021/05/23 03:30:34;;;;;;;6.07;1.15;;;;;;;11.17;72.32;100926.47;4937709;29;20050;-67
2021/05/23 03:33:02;;;;;;;5.82;1.10;;;;;;;11.08;72.35;100933.84;4952164;29;20062;-68
2021/05/23 03:35:30;;;;;;;3.47;1.05;;;;;;;11.19;72.52;100930.53;4922493;29;20051;-67
2021/05/23 03:37:58;;;;;;;6.57;1.42;;;;;;;11.32;71.93;100928.84;4954503;28;20047;-67
2021/05/23 03:40:26;;;;;;;5.53;1.20;;;;;;;11.50;71.66;100935.31;4954613;29;20062;-68
2021/05/23 03:42:53;;;;;;;4.95;1.30;;;;;;;11.55;71.23;100941.53;4955207;29;20047;-68
2021/05/23 03:45:22;;;;;;;3.03;1.17;;;;;;;11.70;70.94;100938.38;4922048;29;20419;-68
2021/05/23 03:47:52;;;;;;;5.05;1.15;;;;;;;11.59;70.73;100944.47;4954312;29;20066;-68
2021/05/23 03:50:21;;;;;;;6.28;1.30;;;;;;;11.61;70.90;100944.97;4938474;29;20078;-67
2021/05/23 03:52:50;;;;;;;6.40;1.23;;;;;;;11.66;71.22;100951.22;4955558;29;20062;-66
2021/05/23 03:55:18;;;;;;;3.83;1.23;;;;;;;11.69;70.55;100955.28;4954464;29;20506;-66
2021/05/23 03:57:46;;;;;;;4.95;1.17;;;;;;;11.78;71.16;100962.50;4955294;29;20047;-67
2021/05/23 04:00:16;;;;;;;6.57;1.38;;;;;;;11.56;70.84;100959.69;4954997;29;20556;-66
2021/05/23 04:02:47;;;;;;;6.47;1.08;;;;;;;11.68;71.02;100957.19;4955251;29;20514;-67
2021/05/23 04:05:16;;;;;;;6.20;1.30;;;;;;;11.46;71.39;100961.88;4937064;29;20078;-66
2021/05/23 04:07:44;;;;;;;5.22;1.40;;;;;;;11.62;71.18;100963.13;4954919;29;20063;-68
2021/05/23 04:10:14;;;;;;;5.75;1.40;;;;;;;11.61;71.07;100956.81;4937115;29;20043;-66
2021/05/23 04:12:43;;;;;;;5.55;1.38;;;;;;;11.71;70.81;100964.06;4954715;29;20055;-67
2021/05/23 04:15:12;;;;;;;6.78;1.20;;;;;;;11.90;69.69;100957.19;4954035;29;20059;-68
2021/05/23 04:17:39;;;;;;;4.30;1.65;;;;;;;11.70;70.61;100960.47;4954704;29;20051;-68
2021/05/23 04:24:48;;;;;;;3.28;1.23;;;;;;;11.48;71.35;100973.41;4953837;29;20055;-68
2021/05/23 04:27:16;;;;;;;5.90;1.60;;;;;;;11.35;71.90;100959.38;4954608;29;20055;-67
2021/05/23 04:29:44;;;;;;;7.45;1.58;;;;;;;11.42;71.87;100977.44;4954526;29;20047;-68
2021/05/23 04:32:12;;;;;;;5.20;1.90;;;;;;;11.42;71.79;100975.47;4954397;29;20055;-67
2021/05/23 04:34:40;;;;;;;4.00;1.45;;;;;;;11.23;72.73;100981.19;4937455;29;20051;-67
2021/05/23 04:37:08;;;;;;;4.47;1.50;;;;;;;11.14;72.90;100983.03;4936622;29;20070;-68
2021/05/23 04:39:35;;;;;;;4.00;1.77;;;;;;;11.45;72.99;100993.38;4953696;29;20054;-67
2021/05/23 04:42:03;;;;;;;4.95;1.70;;;;;;;11.41;72.08;100984.06;4937006;29;20454;-68
2021/05/23 04:44:51;;;;;;;5.03;1.70;;;;;;;11.55;71.94;100982.91;4954454;29;20078;-68
2021/05/23 04:47:18;;;;;;;6.38;2.03;;;;;;;11.31;72.61;100983.19;4954343;29;20051;-68
2021/05/23 04:49:46;;;;;;;4.97;1.90;;;;;;;11.04;73.02;100991.53;4953402;28;20054;-68
2021/05/23 04:52:14;;;;;;;6.55;2.05;;;;;;;11.28;73.40;100988.50;4953229;29;20062;-68
2021/05/23 04:54:42;;;;;;;5.55;1.80;;;;;;;11.56;73.37;100997.53;4953368;29;20047;-68
2021/05/23 04:57:09;;;;;;;4.63;1.80;;;;;;;11.50;72.11;100999.59;4953342;29;20114;-66
2021/05/23 04:59:37;;;;;;;3.75;1.80;;;;;;;11.21;72.70;101001.91;4953546;29;20066;-67
2021/05/23 05:02:05;;;;;;;4.15;1.50;;;;;;;11.23;72.71;101006.00;4936966;29;20047;-67
2021/05/23 05:04:32;;;;;;;6.78;2.00;;;;;;;11.28;72.09;101008.63;4954088;29;20047;-67
2021/05/23 05:07:00;;;;;;;7.65;1.90;;;;;;;11.47;72.17;101004.91;4937024;29;20506;-68
2021/05/23 05:09:28;;;;;;;5.05;1.75;;;;;;;11.44;71.39;101008.31;4937468;29;20066;-67
2021/05/23 05:11:55;;;;;;;7.13;1.90;;;;;;;11.61;72.35;101017.50;4953878;29;20151;-67
2021/05/23 05:14:23;;;;;;;6.00;1.60;;;;;;;11.68;71.92;101020.66;4937144;29;20051;-67
2021/05/23 05:16:50;;;;;;;6.45;1.58;;;;;;;11.74;71.09;101007.56;4954010;29;20059;-68
2021/05/23 05:19:18;;;;;;;5.82;1.77;;;;;;;11.70;70.43;101012.09;4953565;29;20043;-69
2021/05/23 05:21:46;;;;;;;6.60;1.85;;;;;;;11.46;71.04;101008.78;4952607;29;20054;-66
2021/05/23 05:24:14;;;;;;;7.15;1.60;;;;;;;11.67;71.48;101021.81;4937102;29;20133;-69
2021/05/23 05:26:43;;;;;;;7.07;1.60;;;;;;;11.75;71.97;101023.81;4936819;29;20059;-68
2021/05/23 05:29:10;;;;;;;4.60;1.85;;;;;;;12.23;69.69;101023.97;4937149;29;20043;-68
2021/05/23 05:31:38;;;;;;;4.75;1.73;;;;;;;12.31;70.83;101028.69;4953821;29;20055;-68
2021/05/23 05:34:06;;;;;;;5.43;2.13;;;;;;;12.09;69.49;101029.56;4935883;29;20043;-67
2021/05/23 05:36:33;;;;;;;10.23;3.88;;;;;;;12.24;69.17;101031.09;4952519;28;20044;-65
2021/05/23 05:39:01;;;;;;;4.85;1.70;;;;;;;11.94;69.13;101024.44;4953017;29;20573;-66
2021/05/23 05:41:28;;;;;;;9.05;1.60;;;;;;;11.92;68.95;101032.22;4952695;29;20058;-66
2021/05/23 05:43:55;;;;;;;5.15;1.60;;;;;;;11.86;70.01;101032.66;4935582;29;20043;-68
2021/05/23 05:46:23;;;;;;;7.07;1.77;;;;;;;11.99;69.75;101031.78;4953370;29;20062;-68
2021/05/23 05:48:50;;;;;;;6.30;1.77;;;;;;;11.86;69.23;101029.88;4935955;29;20052;-67
2021/05/23 05:51:17;;;;;;;7.97;2.47;;;;;;;11.98;70.08;101035.66;4953622;29;20048;-69
2021/05/23 05:53:45;;;;;;;8.93;4.32;;;;;;;12.06;69.09;101038.50;4953531;29;20518;-67
2021/05/23 05:56:12;;;;;;;7.72;2.30;;;;;;;12.17;68.27;101039.03;4936096;29;20055;-67
2021/05/23 05:58:40;;;;;;;5.65;1.67;;;;;;;12.20;69.22;101041.16;4953479;29;20482;-67
2021/05/23 06:01:08;;;;;;;4.40;1.25;;;;;;;12.17;68.20;101050.88;4955295;28;20051;-67
2021/05/23 06:03:36;;;;;;;6.35;1.48;;;;;;;12.21;67.99;101057.41;4956338;29;20399;-67
2021/05/23 06:10:40;;;;;;;4.88;1.30;;;;;;;12.56;66.63;101052.88;4956294;29;20058;-66
2021/05/23 06:13:07;;;;;;;4.03;1.40;;;;;;;12.46;67.64;101056.72;4956069;29;20062;-68
2021/05/23 06:15:35;;;;;;;6.60;2.28;;;;;;;12.48;66.74;101055.63;4956817;29;20052;-68
2021/05/23 06:18:02;;;;;;;7.88;4.20;;;;;;;12.73;67.13;101050.19;4956569;29;20070;-67
2021/05/23 06:20:30;;;;;;;6.88;2.15;;;;;;;12.74;66.75;101051.84;4938989;29;20058;-67
2021/05/23 06:22:57;;;;;;;6.30;1.48;;;;;;;12.33;66.27;101057.66;4956938;29;20062;-67
2021/05/23 06:25:25;;;;;;;12.25;6.25;;;;;;;12.27;67.57;101064.44;4938854;29;20062;-68
2021/05/23 06:27:52;;;;;;;4.82;1.23;;;;;;;12.57;66.82;101053.72;4956597;29;20066;-65
2021/05/23 06:30:20;;;;;;;9.82;3.40;;;;;;;12.61;66.35;101054.69;4956607;29;20055;-68
2021/05/23 06:32:48;;;;;;;6.10;2.20;;;;;;;12.26;65.94;101054.53;4939783;29;20051;-67
2021/05/23 06:35:17;;;;;;;3.70;1.42;;;;;;;12.70;66.91;101066.59;4955400;28;20514;-68
2021/05/23 06:37:45;;;;;;;5.63;1.80;;;;;;;13.09;67.12;101061.06;4956485;29;20510;-67
2021/05/23 06:40:13;;;;;;;7.65;1.80;;;;;;;13.07;65.02;101060.56;4956417;29;20051;-66
2021/05/23 06:42:40;;;;;;;5.57;1.33;;;;;;;12.99;65.91;101064.91;4955684;29;20078;-66
2021/05/23 06:45:08;;;;;;;5.60;1.85;;;;;;;12.98;63.98;101063.28;4939203;29;20051;-68
2021/05/23 06:47:39;;;;;;;7.05;1.58;;;;;;;12.51;65.66;101066.03;4923481;29;20414;-67
2021/05/23 06:50:07;;;;;;;5.40;1.60;;;;;;;12.43;65.47;101070.34;4939570;29;20051;-69
2021/05/23 06:52:35;;;;;;;4.72;1.40;;;;;;;12.71;66.70;101069.03;4956228;29;20062;-67
2021/05/23 06:55:04;;;;;;;4.47;1.20;;;;;;;13.10;65.63;101073.75;4939233;29;20052;-68
2021/05/23 06:57:31;;;;;;;5.78;1.30;;;;;;;13.17;65.79;101068.56;4939126;29;20063;-70
2021/05/23 06:59:59;;;;;;;6.28;1.55;;;;;;;13.26;64.29;101070.22;4955322;29;20062;-68
2021/05/23 07:02:28;;;;;;;6.32;1.88;;;;;;;13.19;64.07;101074.59;4955471;29;20062;-67
2021/05/23 07:04:58;;;;;;;5.53;1.30;;;;;;;13.30;63.88;101073.16;4939576;29;20063;-66
2021/05/23 07:07:25;;;;;;;6.93;1.40;;;;;;;12.88;63.34;101069.13;4955300;29;20078;-68
2021/05/23 07:09:53;;;;;;;5.90;1.80;;;;;;;12.77;63.78;101076.06;4955878;29;20407;-67
2021/05/23 07:12:21;;;;;;;9.57;1.52;;;;;;;13.06;62.94;101075.53;4955060;28;20051;-68
2021/05/23 07:14:49;;;;;;;8.20;1.83;;;;;;;12.84;63.20;101078.34;4923176;29;20551;-68
2021/05/23 07:17:20;;;;;;;7.13;1.73;;;;;;;12.90;63.70;101071.56;4955317;29;20391;-68
2021/05/23 07:19:48;;;;;;;6.00;1.80;;;;;;;13.33;64.37;101067.81;4955591;29;20051;-68
2021/05/23 07:22:16;;;;;;;7.32;1.80;;;;;;;13.28;62.58;101072.66;4954930;29;20055;-67
2021/05/23 07:24:43;;;;;;;7.10;1.92;;;;;;;13.64;61.91;101075.97;4955579;29;20407;-68
2021/05/23 07:27:10;;;;;;;9.07;3.35;;;;;;;13.73;60.75;101070.41;4955070;29;20051;-69
2021/05/23 07:29:38;;;;;;;6.65;1.75;;;;;;;13.90;60.41;101074.00;4939002;29;20047;-67
2021/05/23 07:32:05;;;;;;;9.60;1.90;;;;;;;14.02;59.47;101076.09;4955355;29;20063;-68
2021/05/23 07:34:33;;;;;;;7.65;2.03;;;;;;;14.43;57.96;101076.41;4938269;29;20403;-67
2021/05/23 07:41:32;;;;;;;7.25;1.70;;;;;;;14.92;56.44;101072.13;4955199;29;20422;-68
2021/05/23 07:43:59;;;;;;;5.95;1.40;;;;;;;14.22;57.53;101078.19;4937313;29;20059;-67
2021/05/23 07:46:26;;;;;;;8.00;1.50;;;;;;;16.04;56.69;101071.00;4954385;29;20051;-67
2021/05/23 07:48:54;;;;;;;8.60;1.65;;;;;;;16.28;53.73;101082.25;4937380;29;20055;-68
2021/05/23 07:56:02;;;;;;;5.07;1.50;;;;;;;15.59;53.49;101082.03;4955229;29;20051;-66
2021/05/23 07:58:29;;;;;;;10.13;1.52;;;;;;;15.79;53.01;101085.97;4955081;28;20062;-69
2021/05/23 08:00:57;;;;;;;8.90;1.60;;;;;;;15.86;52.81;101089.00;4953813;29;20055;-69
2021/05/23 08:03:26;;;;;;;8.82;1.35;;;;;;;16.18;53.06;101081.84;4954500;29;20494;-67
2021/05/23 08:05:54;;;;;;;6.72;1.05;;;;;;;16.04;52.32;101096.03;4953917;29;20047;-63
2021/05/23 08:08:22;;;;;;;11.77;1.60;;;;;;;15.64;52.25;101100.44;4953931;29;20054;-65
2021/05/23 08:10:49;;;;;;;6.00;1.55;;;;;;;15.91;51.53;101091.56;4954555;29;20051;-66
2021/05/23 08:13:17;;;;;;;6.03;1.42;;;;;;;16.51;52.38;101093.81;4937305;29;20055;-68
2021/05/23 08:15:44;;;;;;;8.57;1.48;;;;;;;16.49;49.77;101099.69;4954187;29;20055;-72
2021/05/23 08:18:17;;;;;;;7.95;2.72;;;;;;;16.11;50.92;101103.84;4954588;29;20058;-69
2021/05/23 08:20:50;;;;;;;13.70;7.25;;;;;;;16.21;51.47;101106.19;4937943;29;20051;-66
2021/05/23 08:23:18;;;;;;;7.18;1.60;;;;;;;16.08;52.78;101099.75;4936718;29;20054;-68
2021/05/23 08:25:45;;;;;;;6.00;1.27;;;;;;;16.23;53.18;101104.66;4954167;29;20379;-68
2021/05/23 08:28:13;;;;;;;7.05;1.33;;;;;;;16.26;52.83;101104.00;4954598;28;20047;-67
2021/05/23 08:30:40;;;;;;;7.80;1.50;;;;;;;15.85;53.57;101103.25;4953629;29;20066;-67
2021/05/23 08:33:08;;;;;;;7.47;1.67;;;;;;;15.74;51.88;101109.19;4953295;29;20418;-68
2021/05/23 08:35:35;;;;;;;7.07;1.75;;;;;;;16.00;51.97;101102.63;4937098;29;20050;-67
2021/05/23 08:38:03;;;;;;;8.10;1.40;;;;;;;15.82;51.93;101104.72;4953698;29;20495;-68
2021/05/23 08:40:30;;;;;;;5.82;1.45;;;;;;;15.54;51.96;101110.00;4954043;29;20387;-68
2021/05/23 08:42:58;;;;;;;5.80;1.58;;;;;;;15.54;53.78;101103.63;4954055;29;20431;-67
2021/05/23 08:45:26;;;;;;;9.18;2.60;;;;;;;15.89;52.84;101096.66;4954008;29;20055;-68
2021/05/23 08:47:53;;;;;;;9.48;1.67;;;;;;;16.07;49.95;101097.31;4936643;29;20051;-67
2021/05/23 08:50:24;;;;;;;9.35;1.90;;;;;;;15.98;50.68;101091.03;4954041;29;20181;-67
2021/05/23 08:57:23;;;;;;;7.32;3.65;;;;;;;15.95;50.41;101091.72;4952676;29;20051;-67
2021/05/23 08:59:51;;;;;;;8.02;3.08;;;;;;;16.03;50.58;101086.06;4953141;29;20047;-70
2021/05/23 09:02:18;;;;;;;6.50;1.60;;;;;;;16.20;49.07;101090.66;4953947;29;20047;-68
2021/05/23 09:04:50;;;;;;;8.73;2.10;;;;;;;16.12;50.51;101086.00;4936780;29;20483;-67
2021/05/23 09:12:01;;;;;;;10.00;1.90;;;;;;;16.12;51.07;101080.44;4935885;29;20054;-71
2021/05/23 09:14:40;;;;;;;8.23;1.83;;;;;;;15.94;49.21;101078.97;4936751;29;20113;-68
2021/05/23 09:17:18;;;;;;;9.00;1.55;;;;;;;16.19;48.92;101092.63;4953312;29;20051;-67
2021/05/23 09:19:46;;;;;;;5.35;1.23;;;;;;;16.21;49.54;101092.28;4953689;29;20047;-67
2021/05/23 09:26:46;;;;;;;7.28;1.80;;;;;;;16.56;49.67;101086.03;4952564;29;20070;-66
2021/05/23 09:29:19;;;;;;;8.60;2.20;;;;;;;16.54;47.54;101099.50;4953277;29;20062;-66
2021/05/23 09:31:56;;;;;;;4.07;1.38;;;;;;;16.89;47.79;101099.91;4952830;29;20493;-66
2021/05/23 09:34:27;;;;;;;3.95;1.20;;;;;;;16.47;44.48;101101.22;4953461;28;20062;-65
2021/05/23 09:41:29;;;;;;;7.63;1.30;;;;;;;16.56;47.50;101104.72;4939487;29;19925;-65
2021/05/23 09:44:15;;;;;;;8.40;1.52;;;;;;;16.47;45.59;101104.81;4940226;29;20047;-67
2021/05/23 09:46:52;;;;;;;7.88;1.40;;;;;;;16.33;47.16;101097.88;4956458;29;20117;-67
2021/05/23 09:49:21;;;;;;;5.90;2.03;;;;;;;16.28;47.39;101104.47;4957469;29;20055;-66
2021/05/23 09:56:16;;;;;;;5.82;1.05;;;;;;;16.76;44.87;101085.16;4957138;29;20043;-67
2021/05/23 09:58:48;;;;;;;5.65;1.40;;;;;;;15.95;44.93;101094.50;4940281;29;20491;-67
2021/05/23 10:01:28;;;;;;;6.90;1.63;;;;;;;15.84;46.72;101102.41;4956888;29;20047;-68
2021/05/23 10:03:57;;;;;;;5.80;1.60;;;;;;;16.07;46.96;101100.91;4939613;29;20054;-67
2021/05/23 10:06:28;;;;;;;6.25;1.67;;;;;;;16.23;46.80;101104.66;4940147;29;20059;-67
2021/05/23 10:08:56;;;;;;;8.82;1.90;;;;;;;16.40;46.24;101104.53;4957046;29;20067;-66
2021/05/23 10:11:25;;;;;;;7.78;1.95;;;;;;;16.61;46.15;101101.72;4956880;29;20051;-67
2021/05/23 10:13:53;;;;;;;8.30;2.22;;;;;;;16.70;45.76;101102.44;4956165;29;20063;-66
2021/05/23 10:16:23;;;;;;;11.10;2.33;;;;;;;17.02;45.47;101107.09;4956323;29;20063;-66
2021/05/23 10:18:51;;;;;;;6.28;1.45;;;;;;;17.15;45.27;101100.38;4924427;29;20495;-68
2021/05/23 10:21:18;;;;;;;7.38;1.42;;;;;;;17.54;44.72;101107.22;4955852;29;20055;-68
2021/05/23 10:23:53;;;;;;;6.88;1.77;;;;;;;17.52;44.11;101090.84;4939568;29;20407;-67
2021/05/23 10:26:23;;;;;;;6.68;1.58;;;;;;;17.33;43.62;101103.75;4939255;29;20047;-66
2021/05/23 10:28:51;;;;;;;6.95;1.67;;;;;;;17.18;43.89;101105.25;4939362;29;20055;-68
2021/05/23 10:31:29;;;;;;;8.18;2.33;;;;;;;17.44;43.95;101114.03;4938724;29;20052;-67
2021/05/23 10:33:57;;;;;;;5.57;1.60;;;;;;;17.52;43.34;101110.34;4939181;29;20055;-67
2021/05/23 10:36:37;;;;;;;4.25;2.05;;;;;;;17.50;43.60;101107.13;4955718;29;20048;-67
2021/05/23 10:39:08;;;;;;;9.40;1.50;;;;;;;17.56;42.99;101111.28;4938322;28;20118;-66
2021/05/23 10:41:36;;;;;;;8.00;1.55;;;;;;;17.77;42.35;101095.22;4955837;29;20062;-65
2021/05/23 10:44:25;;;;;;;6.32;1.48;;;;;;;17.38;42.60;101101.50;4955428;29;20062;-67
2021/05/23 10:46:52;;;;;;;6.93;1.50;;;;;;;17.37;43.22;101104.63;4954079;28;20055;-68
2021/05/23 10:49:20;;;;;;;4.95;1.45;;;;;;;17.32;42.69;101107.66;4939228;29;20044;-70
2021/05/23 10:51:56;;;;;;;5.32;1.35;;;;;;;17.55;41.94;101106.88;4938243;29;20059;-69
2021/05/23 10:54:23;;;;;;;4.90;1.40;;;;;;;17.69;41.78;101107.31;4938698;29;20055;-66
2021/05/23 10:57:01;;;;;;;5.32;1.55;;;;;;;18.01;42.10;101108.25;4938354;29;20050;-66
2021/05/23 10:59:30;;;;;;;7.43;1.73;;;;;;;17.93;41.57;101098.88;4955297;29;20055;-66
2021/05/23 11:01:58;;;;;;;5.18;1.17;;;;;;;17.84;41.80;101100.16;4938956;29;20051;-67
2021/05/23 11:04:39;;;;;;;6.55;1.35;;;;;;;17.75;41.15;101110.66;4955235;29;20051;-67
2021/05/23 11:07:08;;;;;;;8.73;1.55;;;;;;;17.65;41.20;101100.00;4955901;29;20108;-70
2021/05/23 11:09:36;;;;;;;6.38;1.70;;;;;;;17.81;41.52;101103.69;4938311;29;20055;-68
2021/05/23 11:12:13;;;;;;;5.18;1.48;;;;;;;17.90;41.15;101101.56;4938691;29;20062;-67
2021/05/23 11:14:41;;;;;;;6.72;1.55;;;;;;;17.98;41.01;101087.47;4955996;29;20056;-68
2021/05/23 11:17:10;;;;;;;7.43;1.48;;;;;;;17.91;41.53;101092.84;4955310;29;20056;-68
2021/05/23 11:19:38;;;;;;;8.48;1.40;;;;;;;18.03;41.40;101083.63;4938746;29;20059;-68
2021/05/23 11:22:08;;;;;;;2.80;1.10;;;;;;;17.98;40.88;101087.47;4955522;29;20073;-67
2021/05/23 11:24:44;;;;;;;7.10;1.35;;;;;;;17.72;41.92;101084.31;4938250;29;20043;-68
2021/05/23 11:27:17;;;;;;;4.20;1.40;;;;;;;17.66;41.41;101085.72;4955075;29;20059;-68
2021/05/23 11:29:49;;;;;;;4.20;1.13;;;;;;;17.67;40.82;101087.34;4938098;29;20058;-68
2021/05/23 11:32:17;;;;;;;8.00;1.80;;;;;;;17.41;41.75;101072.16;4955779;28;20067;-68
2021/05/23 11:34:46;;;;;;;5.38;1.40;;;;;;;17.61;41.51;101082.34;4938231;29;20055;-67
2021/05/23 11:37:14;;;;;;;5.35;1.83;;;;;;;17.66;41.80;101079.34;4938532;29;20043;-69
2021/05/23 11:39:41;;;;;;;6.00;1.33;;;;;;;17.68;40.75;101066.66;4954174;28;20049;-66
2021/05/23 11:42:09;;;;;;;8.27;3.95;;;;;;;17.42;41.80;101069.00;4955506;29;20043;-68
2021/05/23 11:44:39;;;;;;;7.50;2.78;;;;;;;17.39;41.24;101064.16;4921846;29;20055;-68
2021/05/23 11:47:07;;;;;;;4.40;1.23;;;;;;;17.29;41.30;101064.63;4937758;29;20055;-68
2021/05/23 11:49:37;;;;;;;3.95;1.27;;;;;;;17.68;40.73;101066.66;4954846;29;20055;-64
2021/05/23 11:52:05;;;;;;;;;;;;;;;17.50;40.83;101067.31;4938694;29;20051;-66
2021/05/23 11:54:34;;;;;;;6.35;1.42;;;;;;;18.09;39.99;101054.34;4937661;29;19929;-67
2021/05/23 11:57:04;;;;;;;4.55;1.45;;;;;;;18.32;39.56;101052.59;4938332;29;20536;-66
2021/05/23 11:59:31;;;;;;;6.43;1.80;;;;;;;18.44;39.47;101048.94;4953853;28;20070;-65
2021/05/23 12:02:00;;;;;;;5.95;1.52;;;;;;;18.80;39.12;101048.69;4954089;29;20299;-68
2021/05/23 12:04:28;;;;;;;4.13;1.30;;;;;;;18.65;37.93;101036.38;4954346;29;20054;-67
2021/05/23 12:06:56;;;;;;;4.93;1.20;;;;;;;18.59;38.05;101040.59;4954232;29;20062;-66
2021/05/23 12:09:28;;;;;;;5.55;1.50;;;;;;;18.76;36.97;101033.81;4954035;29;20515;-64
2021/05/23 12:11:58;;;;;;;4.22;1.50;;;;;;;18.61;37.74;101034.66;4954052;29;20047;-67
2021/05/23 12:14:37;;;;;;;7.53;1.40;;;;;;;18.62;37.97;101030.69;4937266;29;20055;-65
2021/05/23 12:17:17;;;;;;;7.88;1.20;;;;;;;18.94;37.66;101021.13;4954702;29;20062;-65
2021/05/23 12:19:55;;;;;;;5.15;1.45;;;;;;;19.15;37.92;101021.63;4936928;29;20047;-65